Time;durP1;ratioP1;P1;durP2;ratioP2;P2;SDS_P1;SDS_P2;PMS_P1;PMS_P2;Temp;Humidity;BMP_temperature;BMP_pressure;BME280_temperature;BME280_humidity;BME280_pressure;Samples;Min_cycle;Max_cycle;Signal;HPM_P1;HPM_P2
2020/12/14 00:01:38;;;;;;;4.25;1.38;;;;;;;6.78;94.32;100513.38;5052527;28;20032;-80
2020/12/14 00:04:05;;;;;;;6.30;1.40;;;;;;;6.86;93.63;100514.84;5050232;28;20120;-80
2020/12/14 00:06:31;;;;;;;5.13;2.15;;;;;;;6.92;93.26;100511.16;5050414;28;20051;-79
2020/12/14 00:08:56;;;;;;;4.70;2.13;;;;;;;6.95;93.04;100506.66;5052451;28;20056;-82
2020/12/14 00:11:21;;;;;;;3.92;1.27;;;;;;;6.95;92.77;100503.19;5032073;28;20028;-79
2020/12/14 00:13:47;;;;;;;3.53;1.30;;;;;;;7.04;92.39;100499.38;5059073;28;20028;-80
2020/12/14 00:16:12;;;;;;;3.58;1.60;;;;;;;7.03;92.11;100495.00;5046222;28;20107;-80
2020/12/14 00:18:38;;;;;;;8.43;1.52;;;;;;;7.02;92.41;100483.66;5059145;28;20024;-80
2020/12/14 00:21:03;;;;;;;2.75;1.35;;;;;;;7.08;92.05;100486.06;5050924;28;20048;-80
2020/12/14 00:23:28;;;;;;;6.00;1.15;;;;;;;7.09;91.94;100490.41;5038952;28;20628;-79
2020/12/14 00:25:53;;;;;;;3.83;1.23;;;;;;;7.09;92.10;100486.94;5056596;28;20033;-80
2020/12/14 00:28:19;;;;;;;9.88;1.25;;;;;;;7.08;92.32;100491.34;5055619;28;20028;-80
2020/12/14 00:30:44;;;;;;;3.13;1.52;;;;;;;7.11;91.81;100477.22;5056237;28;20029;-79
2020/12/14 00:33:09;;;;;;;3.97;1.08;;;;;;;7.12;91.82;100474.53;5037777;28;20052;-81
2020/12/14 00:35:34;;;;;;;6.13;1.48;;;;;;;7.14;91.96;100491.09;5058851;28;20029;-82
2020/12/14 00:38:01;;;;;;;1.80;0.80;;;;;;;7.14;91.78;100488.47;5057429;28;20032;-79
2020/12/14 00:40:29;;;;;;;4.35;1.20;;;;;;;7.16;91.62;100499.78;5055251;28;20032;-79
2020/12/14 00:42:55;;;;;;;4.43;1.80;;;;;;;7.16;91.92;100504.19;5043498;28;20025;-80
2020/12/14 00:45:20;;;;;;;3.25;1.25;;;;;;;7.18;91.70;100490.09;5052358;28;20711;-80
2020/12/14 00:47:46;;;;;;;3.92;1.15;;;;;;;7.16;92.03;100486.66;5061906;28;20078;-80
2020/12/14 00:50:11;;;;;;;4.82;1.10;;;;;;;7.17;91.95;100474.34;5059181;28;20053;-80
2020/12/14 00:52:36;;;;;;;3.30;1.08;;;;;;;7.16;92.20;100478.75;5057629;28;20070;-80
2020/12/14 00:55:01;;;;;;;7.28;1.17;;;;;;;7.18;92.10;100481.34;5059277;28;20035;-79
2020/12/14 00:57:27;;;;;;;4.72;1.30;;;;;;;7.19;92.03;100476.03;5056208;28;20024;-79
2020/12/14 00:59:54;;;;;;;6.40;1.60;;;;;;;7.15;92.27;100474.41;5038355;28;20388;-79
2020/12/14 01:02:22;;;;;;;5.32;1.60;;;;;;;7.19;92.35;100472.56;5053946;28;20032;-79
2020/12/14 01:04:48;;;;;;;5.32;1.48;;;;;;;7.20;92.03;100477.75;5055725;28;20421;-79
2020/12/14 01:07:13;;;;;;;4.25;1.00;;;;;;;7.21;92.11;100471.56;5060528;28;20702;-80
2020/12/14 01:09:38;;;;;;;3.20;1.27;;;;;;;7.24;92.43;100483.75;5063302;28;20127;-80
2020/12/14 01:12:04;;;;;;;4.38;1.20;;;;;;;7.26;91.99;100474.88;5059085;28;20143;-81
2020/12/14 01:14:29;;;;;;;4.20;1.13;;;;;;;7.26;91.90;100479.28;5060308;28;20021;-80
2020/12/14 01:16:54;;;;;;;4.95;1.20;;;;;;;7.24;92.24;100476.72;5042288;28;20029;-79
2020/12/14 01:19:19;;;;;;;4.07;1.25;;;;;;;7.25;92.17;100469.69;5059183;28;20029;-80
2020/12/14 01:21:45;;;;;;;4.82;1.70;;;;;;;7.24;92.59;100463.56;5057796;28;20028;-80
2020/12/14 01:24:10;;;;;;;4.70;1.83;;;;;;;7.25;92.89;100448.66;5038868;28;20060;-80
2020/12/14 01:26:35;;;;;;;8.23;1.92;;;;;;;7.23;92.75;100437.38;5049997;28;20021;-81
2020/12/14 01:29:01;;;;;;;4.40;1.40;;;;;;;7.23;93.46;100456.63;5057383;28;20482;-79
2020/12/14 01:31:27;;;;;;;3.00;1.02;;;;;;;7.18;94.65;100462.97;5029510;28;20033;-77
2020/12/14 01:33:53;;;;;;;4.07;1.50;;;;;;;7.05;95.71;100464.31;5058203;28;20050;-78
2020/12/14 01:36:18;;;;;;;3.45;1.30;;;;;;;7.05;96.45;100456.41;5059082;28;20477;-78
2020/12/14 01:38:43;;;;;;;5.22;1.42;;;;;;;7.01;96.96;100466.16;5058135;28;20116;-79
2020/12/14 01:41:08;;;;;;;4.28;1.45;;;;;;;6.92;97.57;100458.59;5056880;28;20025;-78
2020/12/14 01:43:34;;;;;;;7.30;1.70;;;;;;;6.90;97.87;100456.03;5032227;28;20082;-78
2020/12/14 01:45:59;;;;;;;4.13;1.27;;;;;;;6.90;98.45;100461.31;5034363;28;20053;-79
2020/12/14 01:48:25;;;;;;;5.28;1.40;;;;;;;6.87;98.73;100463.16;5038092;28;20078;-80
2020/12/14 01:50:51;;;;;;;4.05;1.48;;;;;;;6.91;98.59;100463.00;5057079;28;20503;-79
2020/12/14 01:53:18;;;;;;;4.40;1.25;;;;;;;6.88;98.96;100467.53;5053887;28;20036;-80
2020/12/14 01:55:45;;;;;;;2.25;1.20;;;;;;;6.87;99.21;100468.41;5057904;28;20044;-80
2020/12/14 01:58:10;;;;;;;3.08;1.80;;;;;;;6.86;99.47;100462.31;5052596;28;20027;-80
2020/12/14 02:00:35;;;;;;;3.70;1.30;;;;;;;6.91;98.93;100462.16;5053611;28;20035;-80
2020/12/14 02:03:01;;;;;;;8.90;1.42;;;;;;;6.88;99.08;100452.63;5054298;28;20542;-80
2020/12/14 02:05:26;;;;;;;3.30;1.60;;;;;;;6.91;99.39;100449.00;5061370;28;20096;-80
2020/12/14 02:07:52;;;;;;;4.80;1.70;;;;;;;6.89;99.73;100446.47;5035345;28;20555;-79
2020/12/14 02:10:17;;;;;;;3.35;1.80;;;;;;;6.91;99.74;100449.00;5042658;28;20031;-80
2020/12/14 02:12:42;;;;;;;5.60;1.67;;;;;;;6.89;99.73;100445.59;5052931;28;20029;-81
2020/12/14 02:15:08;;;;;;;4.35;1.70;;;;;;;6.88;100.00;100442.13;5051418;28;20036;-80
2020/12/14 02:17:34;;;;;;;4.22;1.73;;;;;;;6.85;100.00;100447.47;5039990;28;20120;-79
2020/12/14 02:19:59;;;;;;;5.80;1.80;;;;;;;6.83;100.00;100441.44;5051938;28;20055;-79
2020/12/14 02:22:26;;;;;;;6.18;2.08;;;;;;;6.85;100.00;100449.25;5036559;28;20070;-79
2020/12/14 02:24:54;;;;;;;4.28;2.25;;;;;;;6.81;100.00;100451.09;5054092;28;20058;-79
2020/12/14 02:27:19;;;;;;;2.53;1.80;;;;;;;6.81;100.00;100452.88;5039476;28;20025;-78
2020/12/14 02:29:47;;;;;;;7.72;2.10;;;;;;;6.76;100.00;100445.16;5053461;28;20035;-78
2020/12/14 02:32:14;;;;;;;8.38;2.45;;;;;;;6.74;100.00;100450.47;5057598;28;20568;-78
2020/12/14 02:34:40;;;;;;;3.22;2.33;;;;;;;6.78;100.00;100445.97;5052784;28;20094;-78
2020/12/14 02:37:07;;;;;;;5.65;2.15;;;;;;;6.80;100.00;100446.78;5056759;28;20630;-78
2020/12/14 02:39:33;;;;;;;6.40;2.30;;;;;;;6.80;100.00;100451.16;5042404;28;20047;-77
2020/12/14 02:42:00;;;;;;;5.60;2.42;;;;;;;6.78;100.00;100438.09;5053381;28;20111;-78
2020/12/14 02:44:25;;;;;;;5.93;2.75;;;;;;;6.77;100.00;100439.00;5057530;28;20028;-78
2020/12/14 02:46:50;;;;;;;6.28;2.20;;;;;;;6.79;100.00;100452.09;5052306;28;20032;-78
2020/12/14 02:49:16;;;;;;;8.45;2.80;;;;;;;6.78;100.00;100437.22;5054827;28;20469;-78
2020/12/14 02:51:41;;;;;;;3.17;2.42;;;;;;;6.81;100.00;100431.88;5058212;28;20029;-78
2020/12/14 02:54:06;;;;;;;4.47;2.80;;;;;;;6.78;100.00;100438.09;5050409;28;20037;-78
2020/12/14 02:56:31;;;;;;;5.38;2.35;;;;;;;6.82;100.00;100429.19;5058763;28;20025;-78
2020/12/14 02:58:57;;;;;;;3.60;2.55;;;;;;;6.82;100.00;100437.06;5047733;28;20047;-78
2020/12/14 03:04:44;;;;;;;7.13;3.20;;;;;;;6.82;100.00;100433.56;5052839;28;20157;-78
2020/12/14 03:07:10;;;;;;;4.30;2.53;;;;;;;6.83;100.00;100430.91;5054050;28;20508;-78
2020/12/14 03:09:35;;;;;;;4.00;2.80;;;;;;;6.86;100.00;100427.31;5059567;28;20029;-78
2020/12/14 03:12:00;;;;;;;4.45;2.88;;;;;;;6.89;100.00;100421.97;5055988;28;20050;-77
2020/12/14 03:14:26;;;;;;;6.82;3.10;;;;;;;6.85;100.00;100421.19;5037165;28;20035;-80
2020/12/14 03:16:53;;;;;;;4.18;3.28;;;;;;;6.90;100.00;100424.53;5052474;28;20428;-79
2020/12/14 03:19:18;;;;;;;4.20;2.75;;;;;;;6.93;100.00;100413.91;5056547;28;20028;-77
2020/12/14 03:21:44;;;;;;;5.93;2.90;;;;;;;6.93;100.00;100418.31;5057786;28;20032;-79
2020/12/14 03:24:09;;;;;;;6.07;3.10;;;;;;;6.96;100.00;100415.56;5037205;28;20116;-78
2020/12/14 03:26:35;;;;;;;5.43;2.63;;;;;;;6.95;100.00;100427.84;5060290;28;20024;-79
2020/12/14 03:29:02;;;;;;;5.43;2.67;;;;;;;7.01;100.00;100414.47;5055914;28;20037;-78
2020/12/14 03:31:27;;;;;;;4.88;2.75;;;;;;;7.00;100.00;100410.13;5057410;28;20034;-77
2020/12/14 03:33:54;;;;;;;4.43;2.60;;;;;;;7.03;100.00;100413.56;5051152;28;20464;-79
2020/12/14 03:36:20;;;;;;;8.20;3.35;;;;;;;7.00;100.00;100402.25;5049948;28;20032;-78
2020/12/14 03:38:47;;;;;;;8.93;3.15;;;;;;;7.03;100.00;100411.81;5058124;28;20040;-79
2020/12/14 03:41:13;;;;;;;6.78;2.72;;;;;;;7.04;100.00;100410.88;5054831;28;20020;-80
2020/12/14 03:43:38;;;;;;;5.55;2.92;;;;;;;7.00;100.00;100418.03;5053965;28;20677;-79
2020/12/14 03:46:04;;;;;;;5.43;3.00;;;;;;;7.00;100.00;100417.16;5040382;28;20036;-78
2020/12/14 03:48:29;;;;;;;4.63;2.75;;;;;;;6.99;100.00;100416.31;5057075;28;20041;-79
2020/12/14 03:50:54;;;;;;;7.90;2.55;;;;;;;7.03;100.00;100424.06;5055568;28;20063;-79
2020/12/14 03:53:20;;;;;;;5.97;2.55;;;;;;;7.05;100.00;100415.22;5053243;28;20576;-79
2020/12/14 03:55:45;;;;;;;5.03;2.45;;;;;;;7.05;100.00;100407.34;5051226;28;20021;-78
2020/12/14 03:58:11;;;;;;;6.03;2.63;;;;;;;7.06;100.00;100405.56;5053855;28;20037;-78
2020/12/14 04:00:37;;;;;;;9.40;2.95;;;;;;;7.05;100.00;100403.88;5049375;28;20056;-79
2020/12/14 04:03:05;;;;;;;6.65;3.25;;;;;;;7.05;100.00;100404.72;5048258;28;20075;-79
2020/12/14 04:05:31;;;;;;;7.18;3.30;;;;;;;7.07;100.00;100415.16;5071308;28;20029;-79
2020/12/14 04:07:56;;;;;;;4.80;3.40;;;;;;;7.07;100.00;100413.38;5019987;28;20096;-79
2020/12/14 04:10:21;;;;;;;7.10;2.97;;;;;;;7.12;100.00;100405.34;5061102;28;20032;-78
2020/12/14 04:12:47;;;;;;;5.97;3.58;;;;;;;7.13;100.00;100400.03;5055253;28;20037;-79
2020/12/14 04:15:12;;;;;;;5.95;2.65;;;;;;;7.13;100.00;100397.41;5044272;28;20485;-79
2020/12/14 04:17:37;;;;;;;9.02;3.78;;;;;;;7.12;100.00;100398.31;5058052;28;20405;-79
2020/12/14 04:20:03;;;;;;;4.88;4.20;;;;;;;7.17;100.00;100404.25;5036909;28;20186;-79
2020/12/14 04:22:28;;;;;;;7.00;3.28;;;;;;;7.16;100.00;100396.44;5062412;28;20097;-79
2020/12/14 04:24:53;;;;;;;6.13;2.55;;;;;;;7.20;100.00;100395.41;5053539;28;20489;-78
2020/12/14 04:27:19;;;;;;;4.75;3.55;;;;;;;7.19;100.00;100397.19;5039429;28;20037;-79
2020/12/14 04:29:44;;;;;;;4.70;3.20;;;;;;;7.23;100.00;100396.16;5054971;28;20112;-77
2020/12/14 04:32:09;;;;;;;4.93;2.97;;;;;;;7.25;100.00;100396.94;5054394;28;20202;-79
2020/12/14 04:34:34;;;;;;;6.38;3.50;;;;;;;7.26;100.00;100393.41;5058399;28;20039;-79
2020/12/14 04:37:00;;;;;;;6.18;3.50;;;;;;;7.28;100.00;100388.09;5060905;28;20091;-79
2020/12/14 04:39:25;;;;;;;5.93;3.88;;;;;;;7.30;100.00;100399.41;5041137;28;20021;-78
2020/12/14 04:41:56;;;;;;;6.95;3.65;;;;;;;7.33;100.00;100412.44;5064716;28;20094;-78
2020/12/14 04:44:22;;;;;;;3.75;3.08;;;;;;;7.35;100.00;100401.84;5067555;28;20028;-78
2020/12/14 04:46:48;;;;;;;5.30;3.80;;;;;;;7.36;100.00;100380.75;5057947;28;20085;-79
2020/12/14 04:49:13;;;;;;;5.82;3.50;;;;;;;7.37;100.00;100374.56;5054657;28;20032;-78
2020/12/14 04:51:39;;;;;;;6.18;3.80;;;;;;;7.39;100.00;100370.13;5058693;28;20180;-78
2020/12/14 04:54:05;;;;;;;7.63;3.75;;;;;;;7.41;100.00;100370.91;5059383;28;20051;-78
2020/12/14 04:56:37;;;;;;;10.05;3.70;;;;;;;7.39;100.00;100385.06;5037578;28;20036;-78
2020/12/14 04:59:02;;;;;;;6.80;4.65;;;;;;;7.47;100.00;100382.97;5061670;28;20017;-78
2020/12/14 05:01:29;;;;;;;7.50;3.63;;;;;;;7.47;100.00;100368.03;5056560;28;20069;-79
2020/12/14 05:03:54;;;;;;;7.95;3.38;;;;;;;7.51;100.00;100363.53;5056998;28;20489;-80
2020/12/14 05:06:19;;;;;;;5.53;2.92;;;;;;;7.50;100.00;100372.34;5058029;28;20040;-79
2020/12/14 05:08:45;;;;;;;6.30;3.15;;;;;;;7.56;100.00;100356.31;5059513;28;20041;-78
2020/12/14 05:11:10;;;;;;;4.15;3.55;;;;;;;7.58;100.00;100358.88;5056252;28;20094;-78
2020/12/14 05:13:35;;;;;;;10.18;3.70;;;;;;;7.58;100.00;100372.91;5052152;28;20028;-78
2020/12/14 05:16:01;;;;;;;4.65;2.97;;;;;;;7.64;100.00;100383.19;5057401;28;20813;-79
2020/12/14 05:18:27;;;;;;;5.10;3.28;;;;;;;7.67;100.00;100395.34;5054077;28;20017;-79
2020/12/14 05:21:01;;;;;;;8.13;3.70;;;;;;;7.67;100.00;100390.06;5059447;28;20040;-78
2020/12/14 05:23:28;;;;;;;4.85;3.45;;;;;;;7.69;100.00;100389.13;5033883;28;20555;-79
2020/12/14 05:26:05;;;;;;;4.75;3.30;;;;;;;7.70;100.00;100384.72;5055977;28;20513;-78
2020/12/14 05:28:30;;;;;;;4.18;2.90;;;;;;;7.74;100.00;100395.06;5053673;28;20021;-79
2020/12/14 05:30:55;;;;;;;4.13;3.08;;;;;;;7.75;100.00;100404.66;5041792;28;20035;-78
2020/12/14 05:33:23;;;;;;;6.50;2.90;;;;;;;7.72;100.00;100388.13;5048200;28;20025;-79
2020/12/14 05:35:49;;;;;;;4.72;3.03;;;;;;;7.78;100.00;100395.75;5054671;28;20040;-79
2020/12/14 05:38:25;;;;;;;3.75;2.80;;;;;;;7.76;100.00;100395.84;5060217;28;20028;-78
2020/12/14 05:40:52;;;;;;;3.95;2.83;;;;;;;7.82;100.00;100394.72;5042777;28;20031;-78
2020/12/14 05:43:22;;;;;;;3.75;3.03;;;;;;;7.84;100.00;100398.19;5059495;28;20048;-78
2020/12/14 05:45:48;;;;;;;7.75;3.28;;;;;;;7.84;100.00;100385.03;5055560;28;20016;-78
2020/12/14 05:48:24;;;;;;;5.97;3.30;;;;;;;7.88;100.00;100388.34;5058297;28;20029;-78
2020/12/14 05:50:51;;;;;;;5.18;3.22;;;;;;;7.91;100.00;100386.47;5060143;28;20056;-79
2020/12/14 05:53:20;;;;;;;4.38;3.13;;;;;;;7.89;100.00;100388.31;5058671;28;20033;-77
2020/12/14 05:55:46;;;;;;;6.57;3.45;;;;;;;7.93;100.00;100368.88;5052228;28;20017;-78
2020/12/14 05:58:14;;;;;;;4.53;3.15;;;;;;;7.94;100.00;100362.69;5057066;28;20389;-78
2020/12/14 06:00:45;;;;;;;5.95;3.75;;;;;;;7.95;100.00;100353.84;5054401;28;20028;-78
2020/12/14 06:03:11;;;;;;;9.90;3.55;;;;;;;7.97;100.00;100345.88;5050459;28;20029;-77
2020/12/14 06:05:37;;;;;;;5.20;3.58;;;;;;;7.97;100.00;100345.88;5058523;28;20016;-78
2020/12/14 06:08:19;;;;;;;10.52;3.67;;;;;;;7.96;100.00;100355.56;5053210;28;20029;-78
2020/12/14 06:10:49;;;;;;;7.63;3.97;;;;;;;7.91;100.00;100357.53;5058417;28;20530;-77
2020/12/14 06:13:21;;;;;;;5.53;3.78;;;;;;;7.93;100.00;100362.72;5055395;28;20039;-77
2020/12/14 06:15:49;;;;;;;6.65;3.50;;;;;;;7.95;100.00;100371.41;5060978;28;20067;-77
2020/12/14 06:18:20;;;;;;;4.97;3.75;;;;;;;7.95;100.00;100364.38;5058064;28;20028;-78
2020/12/14 06:20:46;;;;;;;7.15;3.60;;;;;;;7.98;100.00;100366.91;5051910;28;20036;-78
2020/12/14 06:23:12;;;;;;;4.28;3.40;;;;;;;8.02;100.00;100363.19;5059629;28;20105;-79
2020/12/14 06:25:39;;;;;;;5.55;3.45;;;;;;;8.06;100.00;100363.94;5050888;28;20024;-79
2020/12/14 06:28:28;;;;;;;5.05;3.78;;;;;;;8.07;100.00;100359.53;5060070;28;20485;-79
2020/12/14 06:30:54;;;;;;;6.28;4.47;;;;;;;8.07;100.00;100364.78;5054621;28;20098;-79
2020/12/14 06:33:35;;;;;;;5.63;3.33;;;;;;;8.16;100.00;100373.16;5069602;28;20107;-79
2020/12/14 06:36:20;;;;;;;5.63;3.65;;;;;;;8.18;100.00;100373.97;5047047;28;20029;-80
2020/12/14 06:38:47;;;;;;;6.68;3.97;;;;;;;8.23;100.00;100377.25;5056857;28;20542;-80
2020/12/14 06:41:15;;;;;;;6.43;4.78;;;;;;;8.25;100.00;100379.81;5051221;28;20044;-80
2020/12/14 06:43:41;;;;;;;7.28;4.03;;;;;;;8.27;100.00;100375.34;5057184;28;20393;-78
2020/12/14 06:46:07;;;;;;;6.47;4.45;;;;;;;8.36;100.00;100385.50;5034575;28;20036;-78
2020/12/14 06:48:40;;;;;;;13.38;4.65;;;;;;;8.35;100.00;100382.94;5057993;28;20029;-78
2020/12/14 06:51:07;;;;;;;7.60;4.78;;;;;;;8.40;100.00;100387.09;5034839;28;20036;-78
2020/12/14 06:53:43;;;;;;;16.95;5.43;;;;;;;8.43;100.00;100394.00;5035674;28;20028;-79
2020/12/14 06:56:12;;;;;;;6.57;4.35;;;;;;;8.46;100.00;100392.09;5042520;28;20110;-78
2020/12/14 06:58:41;;;;;;;8.82;4.78;;;;;;;8.48;100.00;100398.19;5050044;28;20028;-79
2020/12/14 07:01:42;;;;;;;9.38;4.80;;;;;;;8.49;100.00;100394.63;5052086;28;20025;-78
2020/12/14 07:04:36;;;;;;;14.80;5.63;;;;;;;8.55;100.00;100390.88;5048488;28;20041;-78
2020/12/14 07:07:28;;;;;;;6.00;4.32;;;;;;;8.53;100.00;100390.94;5050474;28;20513;-80
2020/12/14 07:10:08;;;;;;;7.68;4.00;;;;;;;8.52;100.00;100397.09;5050888;28;20120;-79
2020/12/14 07:12:40;;;;;;;5.47;4.65;;;;;;;8.57;100.00;100405.66;5053493;28;20085;-79
2020/12/14 07:15:06;;;;;;;5.30;4.65;;;;;;;8.59;100.00;100412.66;5049814;28;20500;-80
2020/12/14 07:17:31;;;;;;;11.07;4.65;;;;;;;8.59;100.00;100400.34;5046217;28;20059;-78
2020/12/14 07:19:59;;;;;;;6.07;3.83;;;;;;;8.62;100.00;100394.94;5046876;28;20087;-78
2020/12/14 07:22:33;;;;;;;7.20;4.43;;;;;;;8.57;100.00;100405.66;5045648;28;20028;-79
2020/12/14 07:25:03;;;;;;;8.30;3.45;;;;;;;8.64;100.00;100398.38;5051767;28;20503;-79
2020/12/14 07:27:29;;;;;;;5.70;3.67;;;;;;;8.64;100.00;100410.69;5051599;28;20044;-78
2020/12/14 07:30:06;;;;;;;7.20;4.40;;;;;;;8.62;100.00;100413.38;5051882;28;20032;-78
2020/12/14 07:32:31;;;;;;;9.25;5.32;;;;;;;8.68;100.00;100420.16;5067207;28;20027;-78
2020/12/14 07:34:57;;;;;;;5.07;4.35;;;;;;;8.68;100.00;100436.81;5070699;28;20028;-78
2020/12/14 07:37:23;;;;;;;5.65;5.00;;;;;;;8.79;100.00;100428.47;5050135;28;20123;-79
2020/12/14 07:39:50;;;;;;;8.15;4.95;;;;;;;8.82;100.00;100426.53;5036267;28;20126;-79
2020/12/14 07:42:24;;;;;;;7.45;5.57;;;;;;;8.86;100.00;100427.25;5050435;28;20444;-79
2020/12/14 07:44:50;;;;;;;5.70;5.10;;;;;;;8.95;100.00;100433.91;5055162;28;20167;-79
2020/12/14 07:47:20;;;;;;;8.30;5.10;;;;;;;8.99;100.00;100427.59;5050342;28;20519;-78
2020/12/14 07:49:45;;;;;;;5.90;4.32;;;;;;;9.04;100.00;100429.09;5049840;28;20462;-78
2020/12/14 07:52:25;;;;;;;7.75;5.40;;;;;;;9.04;100.00;100434.38;5049806;28;20055;-79
2020/12/14 07:54:59;;;;;;;5.35;4.85;;;;;;;9.07;100.00;100438.63;5049861;28;20436;-79
2020/12/14 07:57:31;;;;;;;6.50;5.47;;;;;;;9.05;100.00;100443.13;5048801;28;20546;-78
2020/12/14 07:59:56;;;;;;;9.77;5.93;;;;;;;9.10;100.00;100441.16;5045185;28;20025;-79
2020/12/14 08:02:22;;;;;;;9.48;5.32;;;;;;;9.16;100.00;100446.13;5048379;28;20029;-78
2020/12/14 08:04:48;;;;;;;7.70;5.80;;;;;;;9.15;100.00;100454.13;5054991;28;20063;-78
2020/12/14 08:07:16;;;;;;;6.22;5.18;;;;;;;9.10;100.00;100462.25;5048570;28;20524;-78
2020/12/14 08:09:45;;;;;;;6.50;4.82;;;;;;;9.12;100.00;100465.66;5052524;28;20064;-79
2020/12/14 08:12:12;;;;;;;4.95;4.45;;;;;;;9.20;100.00;100458.25;5050180;28;20068;-78
2020/12/14 08:14:38;;;;;;;6.18;4.93;;;;;;;9.25;100.00;100464.19;5052336;28;20228;-78
2020/12/14 08:17:10;;;;;;;5.47;4.57;;;;;;;9.29;99.94;100465.78;5046636;28;20653;-79
2020/12/14 08:19:36;;;;;;;13.43;4.97;;;;;;;9.24;100.00;100465.13;5050808;28;20099;-78
2020/12/14 08:22:05;;;;;;;5.63;3.95;;;;;;;9.28;99.88;100468.44;5050481;28;20029;-79
2020/12/14 08:24:31;;;;;;;3.75;3.38;;;;;;;9.28;99.95;100471.94;5047960;28;20119;-79
2020/12/14 08:27:00;;;;;;;4.57;4.05;;;;;;;9.30;99.77;100471.91;5037240;28;20528;-79
2020/12/14 08:29:28;;;;;;;3.67;3.35;;;;;;;9.32;99.66;100470.88;5051297;28;20064;-77
2020/12/14 08:31:58;;;;;;;5.78;3.60;;;;;;;9.31;99.94;100470.97;5055085;28;20123;-77
2020/12/14 08:34:38;;;;;;;5.55;3.85;;;;;;;9.40;99.51;100473.19;5055501;28;20505;-78
2020/12/14 08:37:04;;;;;;;5.63;3.67;;;;;;;9.45;98.94;100473.84;5047837;28;20098;-78
2020/12/14 08:39:30;;;;;;;8.27;3.13;;;;;;;9.45;98.80;100475.63;5045286;28;20420;-78
2020/12/14 08:42:06;;;;;;;3.33;3.03;;;;;;;9.51;98.53;100470.91;5052354;28;20032;-79
2020/12/14 08:44:31;;;;;;;7.68;3.45;;;;;;;9.56;98.39;100463.66;5048201;28;20052;-79
2020/12/14 08:46:57;;;;;;;4.22;2.90;;;;;;;9.64;98.08;100479.13;5054078;28;20571;-78
2020/12/14 08:49:22;;;;;;;4.47;3.65;;;;;;;9.65;97.98;100472.94;5053055;28;20108;-79
2020/12/14 08:51:48;;;;;;;8.90;3.75;;;;;;;9.68;97.92;100482.47;5049173;28;20028;-79
2020/12/14 08:54:16;;;;;;;6.10;2.70;;;;;;;9.71;97.84;100480.56;5055403;28;20035;-78
2020/12/14 08:56:42;;;;;;;7.00;3.38;;;;;;;9.67;98.21;100486.03;5062494;28;20503;-79
2020/12/14 08:59:16;;;;;;;4.03;2.53;;;;;;;9.77;97.55;100484.69;5054554;28;20104;-79
2020/12/14 09:02:04;;;;;;;4.43;2.53;;;;;;;9.80;97.56;100492.47;5049067;28;20116;-79
2020/12/14 09:04:32;;;;;;;4.55;2.42;;;;;;;9.75;97.82;100486.56;5059000;28;20031;-78
2020/12/14 09:06:58;;;;;;;3.42;2.55;;;;;;;9.82;97.10;100480.91;5050635;28;20586;-79
2020/12/14 09:09:33;;;;;;;4.55;2.50;;;;;;;9.82;97.44;100496.72;5050795;28;20032;-78
2020/12/14 09:11:59;;;;;;;4.68;2.50;;;;;;;9.91;96.64;100491.97;5049061;28;20029;-78
2020/12/14 09:14:28;;;;;;;4.80;2.30;;;;;;;10.33;94.68;100497.84;5074270;28;20128;-78
2020/12/14 09:16:59;;;;;;;3.67;2.10;;;;;;;10.04;95.59;100501.88;5049895;28;20194;-79
2020/12/14 09:19:27;;;;;;;3.95;2.25;;;;;;;10.04;95.48;100504.53;5051294;28;20036;-80
2020/12/14 09:21:53;;;;;;;3.42;2.58;;;;;;;10.05;95.34;100505.38;5049841;28;20151;-80
2020/12/14 09:24:23;;;;;;;3.45;2.63;;;;;;;10.01;95.50;100515.22;5037463;28;20551;-78
2020/12/14 09:26:50;;;;;;;3.50;2.25;;;;;;;10.11;95.00;100511.22;5034840;28;20031;-78
2020/12/14 09:29:16;;;;;;;4.10;2.30;;;;;;;10.02;95.32;100511.63;5053359;28;20174;-79
2020/12/14 09:31:53;;;;;;;2.78;1.90;;;;;;;9.95;95.39;100515.50;5051622;28;20115;-78
2020/12/14 09:34:19;;;;;;;4.22;2.15;;;;;;;10.04;95.33;100525.66;5053452;28;20025;-79
2020/12/14 09:36:45;;;;;;;3.05;1.92;;;;;;;10.11;94.85;100526.19;5051081;28;20067;-79
2020/12/14 09:39:11;;;;;;;6.63;2.33;;;;;;;10.17;94.52;100520.63;5055059;28;20416;-79
2020/12/14 09:41:36;;;;;;;4.20;2.15;;;;;;;10.35;93.73;100529.50;5035661;28;20082;-79
2020/12/14 09:44:02;;;;;;;3.85;2.10;;;;;;;10.26;93.82;100544.00;5055134;28;20040;-80
2020/12/14 09:46:29;;;;;;;4.60;2.20;;;;;;;10.17;94.33;100540.88;5051125;28;20051;-79
2020/12/14 09:48:55;;;;;;;4.68;1.92;;;;;;;10.15;94.69;100545.41;5058052;28;20214;-79
2020/12/14 09:51:21;;;;;;;4.05;2.25;;;;;;;10.14;94.28;100549.84;5051354;28;20680;-79
2020/12/14 09:53:47;;;;;;;2.95;2.15;;;;;;;10.17;94.26;100547.03;5055854;28;20466;-80
2020/12/14 09:56:12;;;;;;;6.20;2.72;;;;;;;10.19;94.10;100555.75;5054138;28;20418;-80
2020/12/14 09:58:37;;;;;;;4.40;2.28;;;;;;;10.15;93.95;100559.47;5055324;28;20434;-78
2020/12/14 10:01:03;;;;;;;4.60;2.50;;;;;;;10.18;93.95;100558.44;5047084;28;20486;-79
2020/12/14 10:03:28;;;;;;;7.57;2.83;;;;;;;10.18;94.21;100558.44;5042565;28;20498;-80
2020/12/14 10:05:53;;;;;;;6.32;2.45;;;;;;;10.17;93.59;100552.31;5057993;28;20137;-79
2020/12/14 10:08:18;;;;;;;2.55;1.98;;;;;;;10.20;93.92;100552.19;5057970;28;20040;-78
2020/12/14 10:10:44;;;;;;;3.80;2.30;;;;;;;10.19;93.67;100553.09;5053198;28;20082;-78
2020/12/14 10:13:09;;;;;;;4.57;2.53;;;;;;;10.20;94.19;100552.19;5057656;28;20032;-78
2020/12/14 10:15:35;;;;;;;5.65;2.70;;;;;;;10.24;93.57;100550.25;5057709;28;20115;-79
2020/12/14 10:18:03;;;;;;;4.10;2.20;;;;;;;10.26;93.40;100551.06;5055883;28;20020;-79
2020/12/14 10:20:28;;;;;;;4.35;2.13;;;;;;;10.29;93.14;100561.47;5049833;28;20041;-80
2020/12/14 10:22:54;;;;;;;5.00;2.97;;;;;;;10.32;93.13;100556.03;5055235;28;20024;-80
2020/12/14 10:25:20;;;;;;;4.53;2.60;;;;;;;10.33;92.63;100563.88;5050597;28;20024;-81
2020/12/14 10:27:46;;;;;;;3.55;2.20;;;;;;;10.34;92.89;100565.63;5060364;28;20024;-79
2020/12/14 10:30:11;;;;;;;4.88;2.38;;;;;;;10.88;89.81;100563.84;5051084;28;20504;-80
2020/12/14 10:32:36;;;;;;;2.85;1.90;;;;;;;10.55;90.70;100566.38;5057459;28;20020;-78
2020/12/14 10:35:02;;;;;;;2.80;1.85;;;;;;;12.09;85.71;100567.25;5052710;28;20025;-78
2020/12/14 10:37:28;;;;;;;5.60;1.95;;;;;;;12.77;82.28;100566.97;5055854;28;20016;-78
2020/12/14 10:39:53;;;;;;;6.45;2.28;;;;;;;12.88;81.11;100573.34;5047606;28;20120;-79
2020/12/14 10:42:18;;;;;;;3.80;2.00;;;;;;;13.20;80.44;100568.81;5049495;28;20033;-78
2020/12/14 10:44:43;;;;;;;4.03;2.28;;;;;;;11.60;85.61;100573.38;5032389;28;20078;-78
2020/12/14 10:47:09;;;;;;;6.40;2.00;;;;;;;11.18;87.48;100571.16;5049875;28;20029;-79
2020/12/14 10:49:34;;;;;;;6.43;2.08;;;;;;;10.92;88.95;100576.91;5053779;28;20032;-79
2020/12/14 10:52:03;;;;;;;7.05;2.33;;;;;;;10.75;89.80;100580.41;5034029;28;20382;-79
2020/12/14 10:54:28;;;;;;;6.15;2.55;;;;;;;10.67;90.41;100583.41;5053891;28;20036;-78
2020/12/14 10:56:54;;;;;;;7.97;2.45;;;;;;;10.59;90.79;100589.09;5056052;28;20534;-80
2020/12/14 10:59:19;;;;;;;5.65;2.88;;;;;;;10.51;90.15;100590.38;5054407;28;20056;-77
2020/12/14 11:01:50;;;;;;;5.03;2.50;;;;;;;10.51;90.71;100593.00;5046152;28;20056;-79
2020/12/14 11:04:16;;;;;;;4.97;2.10;;;;;;;10.50;91.18;100589.50;5055365;28;20170;-79
2020/12/14 11:06:41;;;;;;;8.20;2.83;;;;;;;10.51;91.13;100587.72;5050163;28;20568;-79
2020/12/14 11:09:06;;;;;;;7.18;2.72;;;;;;;10.54;90.98;100587.56;5048770;28;20049;-78
2020/12/14 11:11:32;;;;;;;6.63;2.65;;;;;;;10.54;90.47;100593.72;5052953;28;20024;-79
2020/12/14 11:13:59;;;;;;;6.03;2.55;;;;;;;10.54;90.49;100595.50;5054692;28;20570;-78
2020/12/14 11:16:26;;;;;;;4.43;2.47;;;;;;;10.51;90.56;100593.00;5055767;28;20074;-80
2020/12/14 11:18:52;;;;;;;6.30;2.53;;;;;;;10.48;90.76;100588.72;5049017;28;20327;-81
2020/12/14 11:21:17;;;;;;;5.18;2.55;;;;;;;10.53;90.79;100591.13;5049174;28;20626;-79
2020/12/14 11:23:42;;;;;;;5.75;3.20;;;;;;;10.55;90.91;100589.28;5044900;28;20039;-79
2020/12/14 11:26:07;;;;;;;4.68;2.60;;;;;;;10.54;90.42;100600.78;5050556;28;20033;-80
2020/12/14 11:28:33;;;;;;;6.72;2.40;;;;;;;10.51;90.63;100596.50;5052477;28;20405;-79
2020/12/14 11:30:58;;;;;;;5.60;3.13;;;;;;;10.58;90.63;100595.28;5055315;28;20495;-78